createdAt,value
2018-12-17T00:00:56.992Z,20.20
2018-12-17T00:03:38.803Z,23.50
2018-12-17T00:06:14.534Z,17.20
2018-12-17T00:08:47.815Z,17.87
2018-12-17T00:11:23.548Z,15.33
2018-12-17T00:14:04.750Z,20.23
2018-12-17T00:16:44.451Z,17.37
2018-12-17T00:19:17.014Z,16.37
2018-12-17T00:21:58.448Z,17.53
2018-12-17T00:24:40.183Z,18.90
2018-12-17T00:27:22.077Z,17.77
2018-12-17T00:29:55.333Z,18.63
2018-12-17T00:32:30.916Z,20.97
2018-12-17T00:35:12.409Z,26.40
2018-12-17T00:37:54.344Z,19.53
2018-12-17T00:40:26.805Z,17.93
2018-12-17T00:43:08.576Z,20.53
2018-12-17T00:45:49.771Z,16.07
2018-12-17T00:48:31.915Z,24.07
2018-12-17T00:51:14.762Z,20.77
2018-12-17T00:53:54.088Z,18.03
2018-12-17T00:56:24.859Z,15.37
2018-12-17T00:58:58.098Z,16.63
2018-12-17T01:01:31.372Z,19.23
2018-12-17T01:04:13.400Z,13.43
2018-12-17T01:06:55.396Z,15.23
2018-12-17T01:09:28.655Z,18.63
2018-12-17T01:12:09.809Z,17.77
2018-12-17T01:14:55.744Z,17.70
2018-12-17T01:17:37.759Z,17.50
2018-12-17T01:20:13.175Z,19.40
2018-12-17T01:22:54.347Z,19.60
2018-12-17T01:25:36.289Z,20.27
2018-12-17T01:28:22.148Z,18.30
2018-12-17T01:30:53.287Z,19.70
2018-12-17T01:33:26.407Z,17.03
2018-12-17T01:36:08.152Z,16.17
2018-12-17T01:38:50.070Z,16.20
2018-12-17T01:41:23.107Z,18.10
2018-12-17T01:47:04.528Z,20.67
2018-12-17T01:49:46.408Z,18.73
2018-12-17T01:52:28.387Z,18.57
2018-12-17T01:55:03.103Z,24.47
2018-12-17T01:57:44.502Z,19.43
2018-12-17T02:00:17.574Z,15.07
2018-12-17T02:02:48.782Z,19.73
2018-12-17T02:05:30.756Z,19.83
2018-12-17T02:08:12.560Z,19.90
2018-12-17T02:10:44.999Z,18.20
2018-12-17T02:13:26.070Z,13.90
2018-12-17T02:16:07.245Z,11.87
2018-12-17T02:18:44.842Z,16.57
2018-12-17T02:21:26.656Z,15.90
2018-12-17T02:24:13.399Z,14.93
2018-12-17T02:26:55.352Z,16.17
2018-12-17T02:29:28.484Z,14.97
2018-12-17T02:32:09.612Z,14.60
2018-12-17T02:34:42.803Z,14.07
2018-12-17T02:37:24.565Z,18.33
2018-12-17T02:39:57.732Z,16.80
2018-12-17T02:42:39.061Z,22.97
2018-12-17T02:45:20.915Z,16.97
2018-12-17T02:48:02.131Z,18.47
2018-12-17T02:50:35.148Z,14.07
2018-12-17T02:53:17.293Z,19.73
2018-12-17T02:55:59.199Z,13.43
2018-12-17T02:58:44.149Z,16.27
2018-12-17T03:01:24.203Z,15.50
2018-12-17T03:03:57.277Z,16.37
2018-12-17T03:06:39.099Z,19.83
2018-12-17T03:09:12.404Z,15.43
2018-12-17T03:11:47.825Z,14.47
2018-12-17T03:14:22.876Z,16.77
2018-12-17T03:16:55.527Z,17.07
2018-12-17T03:19:31.183Z,16.90
2018-12-17T03:22:06.058Z,13.57
2018-12-17T03:24:47.460Z,16.17
2018-12-17T03:27:29.402Z,15.40
2018-12-17T03:30:02.547Z,18.50
2018-12-17T03:32:44.608Z,13.37
2018-12-17T03:35:26.543Z,13.83
2018-12-17T03:38:08.215Z,14.30
2018-12-17T03:40:41.453Z,13.07
2018-12-17T03:43:23.403Z,14.77
2018-12-17T03:46:05.168Z,13.97
2018-12-17T03:48:46.941Z,14.53
2018-12-17T03:51:28.683Z,16.33
2018-12-17T03:54:10.706Z,16.03
2018-12-17T03:56:45.350Z,19.57
2018-12-17T03:59:18.107Z,13.13
2018-12-17T04:02:00.072Z,16.87
2018-12-17T04:04:35.578Z,12.80
2018-12-17T04:07:17.088Z,15.80
2018-12-17T04:09:50.558Z,12.53
2018-12-17T04:12:32.273Z,14.87
2018-12-17T04:15:14.212Z,13.90
2018-12-17T04:17:56.235Z,13.07
2018-12-17T04:20:29.287Z,14.00
2018-12-17T04:23:11.157Z,17.20
2018-12-17T04:25:46.401Z,15.37
2018-12-17T04:28:34.093Z,15.83
2018-12-17T04:31:15.671Z,17.63
2018-12-17T04:33:51.556Z,16.50
2018-12-17T04:36:32.696Z,13.93
2018-12-17T04:39:07.500Z,17.33
2018-12-17T04:41:49.072Z,16.40
2018-12-17T04:44:24.628Z,19.67
2018-12-17T04:47:06.109Z,19.67
2018-12-17T04:49:39.171Z,15.80
2018-12-17T04:52:21.084Z,13.13
2018-12-17T04:54:52.179Z,18.13
2018-12-17T04:57:34.747Z,20.60
2018-12-17T05:00:08.969Z,18.20
2018-12-17T05:02:50.124Z,22.90
2018-12-17T05:05:31.932Z,18.77
2018-12-17T05:08:13.879Z,15.77
2018-12-17T05:10:46.256Z,18.83
2018-12-17T05:13:29.103Z,16.57
2018-12-17T05:16:10.872Z,17.23
2018-12-17T05:18:51.903Z,18.70
2018-12-17T05:21:33.616Z,15.90
2018-12-17T05:24:05.858Z,16.93
2018-12-17T05:26:47.984Z,14.67
2018-12-17T05:29:23.583Z,17.83
2018-12-17T05:31:56.352Z,17.97
2018-12-17T05:34:29.272Z,19.77
2018-12-17T05:37:16.275Z,22.63
2018-12-17T05:39:49.672Z,15.67
2018-12-17T05:42:31.221Z,16.07
2018-12-17T05:45:19.190Z,18.93
2018-12-17T05:48:00.978Z,18.60
2018-12-17T05:50:37.069Z,17.27
2018-12-17T05:53:19.065Z,15.60
2018-12-17T05:56:03.107Z,18.60
2018-12-17T05:58:45.011Z,14.50
2018-12-17T06:01:32.467Z,17.27
2018-12-17T06:04:14.384Z,17.03
2018-12-17T06:06:56.339Z,17.47
2018-12-17T06:09:31.771Z,19.20
2018-12-17T06:12:12.968Z,18.30
2018-12-17T06:14:45.983Z,15.77
2018-12-17T06:17:27.951Z,18.70
2018-12-17T06:20:09.991Z,16.40
2018-12-17T06:22:51.791Z,17.67
2018-12-17T06:25:34.435Z,16.73
2018-12-17T06:28:09.471Z,19.90
2018-12-17T06:30:43.244Z,19.13
2018-12-17T06:33:24.899Z,23.17
2018-12-17T06:36:07.203Z,17.90
2018-12-17T06:38:49.015Z,17.60
2018-12-17T06:44:30.654Z,26.23
2018-12-17T06:47:12.978Z,20.07
2018-12-17T06:49:46.023Z,18.07
2018-12-17T06:52:27.967Z,19.83
2018-12-17T06:55:09.828Z,20.77
2018-12-17T06:57:51.588Z,20.90
2018-12-17T07:00:25.187Z,16.87
2018-12-17T07:03:06.997Z,18.47
2018-12-17T07:05:42.467Z,15.73
2018-12-17T07:08:25.147Z,18.73
2018-12-17T07:11:00.521Z,18.53
2018-12-17T07:13:41.759Z,21.50
2018-12-17T07:16:23.755Z,23.67
2018-12-17T07:18:57.083Z,17.67
2018-12-17T07:21:39.418Z,21.83
2018-12-17T07:24:21.174Z,21.13
2018-12-17T07:27:03.064Z,24.67
2018-12-17T07:29:36.304Z,19.70
2018-12-17T07:32:11.722Z,23.30
2018-12-17T07:34:47.127Z,23.40
2018-12-17T07:37:28.536Z,27.80
2018-12-17T07:40:01.560Z,26.37
2018-12-17T07:42:43.327Z,23.63
2018-12-17T07:45:26.231Z,21.00
2018-12-17T07:48:08.119Z,25.97
2018-12-17T07:50:41.267Z,22.47
2018-12-17T07:53:23.207Z,24.37
2018-12-17T07:56:05.104Z,20.20
2018-12-17T07:58:46.875Z,19.43
2018-12-17T08:01:22.406Z,21.40
2018-12-17T08:03:55.084Z,21.20
2018-12-17T08:06:28.308Z,22.60
2018-12-17T08:09:01.588Z,21.40
2018-12-17T08:11:43.598Z,20.27
2018-12-17T08:14:25.556Z,23.27
2018-12-17T08:17:07.527Z,19.73
2018-12-17T08:19:40.773Z,23.27
2018-12-17T08:22:23.059Z,23.33
2018-12-17T08:24:53.679Z,19.53
2018-12-17T08:27:36.809Z,22.00
2018-12-17T08:30:08.626Z,22.67
2018-12-17T08:32:49.673Z,24.57
2018-12-17T08:35:31.641Z,24.93
2018-12-17T08:38:02.795Z,20.90
2018-12-17T08:40:35.843Z,24.17
2018-12-17T08:43:18.016Z,24.60
2018-12-17T08:45:59.967Z,25.63
2018-12-17T08:48:41.928Z,24.40
2018-12-17T08:51:13.038Z,20.17
2018-12-17T08:53:54.958Z,17.17
2018-12-17T08:56:36.644Z,22.87
2018-12-17T08:59:09.763Z,21.53
2018-12-17T09:01:51.521Z,22.10
2018-12-17T09:04:33.315Z,20.93
2018-12-17T09:07:15.045Z,22.40
2018-12-17T09:09:48.114Z,19.03
2018-12-17T09:12:19.340Z,16.17
2018-12-17T09:15:01.336Z,19.20
2018-12-17T09:17:43.077Z,22.43
2018-12-17T09:20:16.299Z,19.87
2018-12-17T09:22:58.278Z,20.17
2018-12-17T09:25:33.907Z,17.20
2018-12-17T09:28:15.180Z,16.40
2018-12-17T09:30:48.423Z,19.57
2018-12-17T09:33:30.166Z,22.50
2018-12-17T09:36:17.079Z,21.63
2018-12-17T09:38:50.116Z,23.13
2018-12-17T09:41:31.429Z,21.27
2018-12-17T09:44:14.309Z,22.47
2018-12-17T09:46:56.343Z,19.47
2018-12-17T09:49:29.603Z,22.03
2018-12-17T09:52:11.658Z,18.77
2018-12-17T09:57:25.622Z,17.97
2018-12-17T09:59:58.751Z,19.47
2018-12-17T10:02:40.724Z,20.70
2018-12-17T10:05:22.605Z,19.27
2018-12-17T10:08:03.807Z,18.70
2018-12-17T10:10:36.915Z,19.33
2018-12-17T10:13:15.897Z,17.47
2018-12-17T10:15:57.132Z,21.30
2018-12-17T10:18:39.064Z,18.53
2018-12-17T10:21:18.333Z,18.47
2018-12-17T10:23:51.232Z,21.90
2018-12-17T10:26:33.116Z,20.37
2018-12-17T10:29:06.076Z,19.73
2018-12-17T10:31:47.916Z,23.47
2018-12-17T10:34:29.735Z,19.93
2018-12-17T10:37:05.357Z,21.80
2018-12-17T10:39:38.200Z,18.27
2018-12-17T10:42:09.239Z,19.10
2018-12-17T10:44:51.063Z,22.57
2018-12-17T10:47:32.319Z,18.30
2018-12-17T10:50:03.767Z,21.27
2018-12-17T10:52:38.829Z,21.17
2018-12-17T10:55:20.156Z,21.37
2018-12-17T10:58:02.059Z,18.00
2018-12-17T11:00:40.529Z,20.30
2018-12-17T11:03:27.064Z,18.93
2018-12-17T11:06:08.645Z,21.00
2018-12-17T11:08:50.630Z,20.77
2018-12-17T11:11:25.512Z,23.53
2018-12-17T11:14:08.406Z,24.90
2018-12-17T11:16:49.897Z,17.43
2018-12-17T11:19:23.051Z,18.37
2018-12-17T11:21:55.513Z,23.17
2018-12-17T11:24:26.467Z,19.00
2018-12-17T11:27:01.967Z,19.03
2018-12-17T11:29:34.611Z,20.03
2018-12-17T11:32:12.204Z,17.90
2018-12-17T11:34:53.784Z,19.70
2018-12-17T11:37:35.669Z,20.93
2018-12-17T11:40:11.199Z,19.00
2018-12-17T11:42:52.640Z,18.93
2018-12-17T11:45:33.807Z,22.10
2018-12-17T11:48:04.907Z,21.33
2018-12-17T11:50:39.153Z,18.70
2018-12-17T11:53:20.952Z,21.83
2018-12-17T12:01:05.058Z,19.53
2018-12-17T12:03:46.656Z,19.30
2018-12-17T12:06:17.930Z,19.40
2018-12-17T12:08:50.968Z,19.13
2018-12-17T12:11:32.897Z,17.53
2018-12-17T12:14:14.760Z,17.10
2018-12-17T12:16:56.817Z,20.40
2018-12-17T12:19:29.920Z,21.13
2018-12-17T12:22:12.096Z,22.03
2018-12-17T12:24:53.656Z,20.20
2018-12-17T12:27:29.552Z,19.77
2018-12-17T12:30:02.744Z,20.83
2018-12-17T12:32:34.132Z,20.33
2018-12-17T12:35:16.044Z,19.70
2018-12-17T12:37:57.868Z,20.47
2018-12-17T12:40:31.011Z,19.63
2018-12-17T12:43:12.736Z,20.00
2018-12-17T12:45:54.741Z,20.10
2018-12-17T12:48:36.832Z,19.20
2018-12-17T12:51:18.827Z,20.33
2018-12-17T12:54:00.845Z,19.20
2018-12-17T12:56:42.740Z,17.80
2018-12-17T12:59:18.282Z,19.93
2018-12-17T13:01:59.698Z,17.43
2018-12-17T13:04:41.651Z,18.40
2018-12-17T13:07:23.467Z,20.13
2018-12-17T13:09:55.788Z,16.53
2018-12-17T13:12:37.772Z,17.73
2018-12-17T13:15:19.784Z,20.97
2018-12-17T13:18:00.892Z,16.87
2018-12-17T13:20:34.035Z,18.53
2018-12-17T13:23:21.475Z,17.80
2018-12-17T13:26:03.270Z,18.67
2018-12-17T13:28:40.725Z,17.63
2018-12-17T13:31:22.061Z,20.03
2018-12-17T13:33:57.511Z,17.90
2018-12-17T13:36:39.112Z,20.17
2018-12-17T13:39:12.454Z,18.47
2018-12-17T13:41:54.620Z,21.23
2018-12-17T13:44:36.451Z,17.13
2018-12-17T13:47:17.639Z,16.03
2018-12-17T13:49:50.699Z,17.13
2018-12-17T13:52:36.891Z,16.80
2018-12-17T13:55:18.688Z,19.43
2018-12-17T13:58:00.632Z,17.40
2018-12-17T14:00:32.991Z,15.57
2018-12-17T14:03:16.871Z,16.33
2018-12-17T14:05:58.840Z,16.57
2018-12-17T14:08:30.127Z,18.30
2018-12-17T14:11:04.919Z,16.03
2018-12-17T14:13:35.499Z,16.27
2018-12-17T14:16:17.448Z,13.57
2018-12-17T14:18:58.130Z,18.77
2018-12-17T14:21:44.434Z,19.63
2018-12-17T14:24:26.260Z,21.43
2018-12-17T14:27:08.000Z,15.10
2018-12-17T14:29:49.868Z,17.33
2018-12-17T14:32:30.920Z,16.00
2018-12-17T14:35:06.559Z,15.43
2018-12-17T14:37:53.027Z,14.63
2018-12-17T14:40:25.955Z,15.20
2018-12-17T14:43:07.699Z,15.70
2018-12-17T14:45:42.412Z,16.97
2018-12-17T14:48:23.962Z,16.10
2018-12-17T14:50:56.927Z,15.80
2018-12-17T14:53:38.824Z,13.63
2018-12-17T14:56:20.864Z,14.47
2018-12-17T14:58:53.915Z,10.93
2018-12-17T15:01:24.951Z,17.23
2018-12-17T15:04:06.985Z,13.20
2018-12-17T15:06:48.687Z,12.03
2018-12-17T15:09:21.131Z,11.30
2018-12-17T15:12:03.117Z,13.00
2018-12-17T15:14:44.243Z,12.03
2018-12-17T15:17:26.157Z,11.83
2018-12-17T15:20:08.402Z,12.57
2018-12-17T15:22:50.179Z,14.47
2018-12-17T15:25:31.992Z,14.23
2018-12-17T15:28:14.036Z,12.67
2018-12-17T15:30:47.331Z,15.03
2018-12-17T15:33:29.275Z,12.80
2018-12-17T15:36:10.992Z,9.63
2018-12-17T15:38:52.962Z,10.13
2018-12-17T15:41:45.428Z,11.07
2018-12-17T15:44:26.844Z,10.80
2018-12-17T15:47:04.467Z,10.67
2018-12-17T15:49:36.941Z,11.70
2018-12-17T15:52:08.051Z,9.93
2018-12-17T15:54:49.953Z,13.83
2018-12-17T15:57:31.148Z,11.73
2018-12-17T16:00:04.951Z,12.77
2018-12-17T16:02:46.120Z,13.97
2018-12-17T16:05:17.484Z,12.60
2018-12-17T16:07:59.108Z,10.13
2018-12-17T16:10:32.255Z,9.53
2018-12-17T16:13:14.111Z,12.87
2018-12-17T16:15:55.807Z,10.87
2018-12-17T16:18:43.676Z,9.90
2018-12-17T16:21:25.492Z,9.53
2018-12-17T16:23:55.983Z,10.70
2018-12-17T16:26:38.043Z,9.23
2018-12-17T16:29:11.224Z,13.00
2018-12-17T16:31:57.273Z,11.57
2018-12-17T16:34:37.267Z,12.40
2018-12-17T16:37:19.293Z,15.20
2018-12-17T16:39:52.423Z,16.93
2018-12-17T16:42:34.579Z,13.00
2018-12-17T16:45:15.747Z,16.27
2018-12-17T16:47:46.889Z,17.13
2018-12-17T16:50:33.116Z,15.20
2018-12-17T16:53:15.140Z,15.23
2018-12-17T16:55:57.024Z,17.40
2018-12-17T16:58:28.054Z,12.40
2018-12-17T17:01:03.385Z,11.23
2018-12-17T17:03:45.543Z,14.83
2018-12-17T17:06:27.541Z,13.60
2018-12-17T17:09:01.232Z,10.50
2018-12-17T17:11:42.943Z,13.70
2018-12-17T17:14:24.775Z,10.57
2018-12-17T17:17:06.160Z,13.20
2018-12-17T17:19:39.175Z,15.10
2018-12-17T17:22:20.841Z,12.27
2018-12-17T17:24:52.425Z,19.03
2018-12-17T17:27:23.405Z,20.70
2018-12-17T17:29:59.325Z,17.80
2018-12-17T17:32:41.063Z,13.40
2018-12-17T17:35:23.305Z,14.80
2018-12-17T17:38:04.938Z,14.67
2018-12-17T17:40:38.554Z,12.87
2018-12-17T17:43:21.233Z,14.30
2018-12-17T17:46:02.989Z,14.93
2018-12-17T17:48:44.734Z,13.73
2018-12-17T17:51:33.195Z,13.10
2018-12-17T17:54:04.023Z,14.30
2018-12-17T17:56:35.246Z,10.83
2018-12-17T17:59:07.648Z,14.50
2018-12-17T18:01:49.436Z,11.27
2018-12-17T18:04:31.356Z,12.63
2018-12-17T18:07:14.164Z,11.07
2018-12-17T18:09:47.376Z,13.10
2018-12-17T18:12:29.437Z,13.73
2018-12-17T18:15:11.456Z,15.00
2018-12-17T18:17:46.198Z,15.03
2018-12-17T18:20:18.894Z,20.17
2018-12-17T18:22:54.459Z,19.13
2018-12-17T18:25:44.396Z,15.17
2018-12-17T18:28:25.911Z,13.83
2018-12-17T18:30:57.035Z,15.07
2018-12-17T18:33:38.107Z,18.33
2018-12-17T18:36:20.000Z,29.50
2018-12-17T18:38:53.383Z,15.67
2018-12-17T18:41:35.534Z,16.73
2018-12-17T18:44:17.022Z,17.43
2018-12-17T18:46:49.351Z,14.17
2018-12-17T18:49:22.626Z,13.20
2018-12-17T18:52:08.504Z,16.87
2018-12-17T18:54:51.489Z,16.93
2018-12-17T18:57:33.524Z,13.63
2018-12-17T19:00:10.574Z,11.43
2018-12-17T19:02:52.220Z,15.30
2018-12-17T19:05:27.703Z,12.60
2018-12-17T19:08:09.398Z,10.80
2018-12-17T19:10:51.540Z,9.43
2018-12-17T19:13:32.776Z,10.70
2018-12-17T19:16:14.849Z,12.33
2018-12-17T19:18:57.075Z,14.43
2018-12-17T19:21:32.709Z,12.50
2018-12-17T19:24:14.043Z,15.27
2018-12-17T19:26:45.312Z,16.37
2018-12-17T19:29:22.760Z,17.13
2018-12-17T19:32:01.277Z,20.90
2018-12-17T19:34:42.970Z,17.90
2018-12-17T19:37:23.575Z,19.60
2018-12-17T19:39:57.315Z,17.87
2018-12-17T19:42:28.567Z,15.77
2018-12-17T19:45:01.492Z,17.67
2018-12-17T19:47:43.269Z,16.87
2018-12-17T19:50:19.904Z,16.67
2018-12-17T19:52:54.935Z,13.93
2018-12-17T19:55:30.162Z,14.80
2018-12-17T19:58:12.137Z,18.70
2018-12-17T20:00:44.473Z,12.13
2018-12-17T20:03:26.339Z,11.87
2018-12-17T20:06:08.414Z,11.67
2018-12-17T20:08:51.709Z,10.20
2018-12-17T20:11:34.835Z,13.90
2018-12-17T20:14:16.015Z,10.13
2018-12-17T20:16:47.284Z,10.50
2018-12-17T20:19:21.869Z,10.60
2018-12-17T20:21:59.340Z,10.87
2018-12-17T20:24:40.747Z,10.07
2018-12-17T20:27:22.698Z,9.57
2018-12-17T20:29:55.998Z,11.80
2018-12-17T20:32:38.894Z,8.97
2018-12-17T20:35:21.039Z,11.80
2018-12-17T20:38:07.471Z,10.47
2018-12-17T20:40:45.619Z,14.90
2018-12-17T20:43:23.708Z,20.13
2018-12-17T20:46:06.771Z,31.70
2018-12-17T20:48:54.822Z,26.10
2018-12-17T20:51:36.476Z,18.43
2018-12-17T20:54:19.620Z,13.57
2018-12-17T20:57:03.199Z,19.30
2018-12-17T20:59:42.369Z,17.17
2018-12-17T21:02:26.655Z,12.53
2018-12-17T21:04:59.910Z,14.23
2018-12-17T21:10:11.422Z,11.37
2018-12-17T21:12:52.668Z,37.70
2018-12-17T21:15:29.233Z,30.37
2018-12-17T21:18:12.901Z,21.40
2018-12-17T21:20:47.632Z,17.87
2018-12-17T21:23:29.806Z,14.53
2018-12-17T21:26:11.568Z,11.57
2018-12-17T21:28:54.108Z,12.83
2018-12-17T21:31:31.159Z,13.77
2018-12-17T21:34:08.721Z,13.53
2018-12-17T21:36:50.674Z,16.80
2018-12-17T21:39:28.353Z,23.60
2018-12-17T21:42:13.364Z,19.83
2018-12-17T21:48:08.581Z,21.07
2018-12-17T21:50:44.052Z,16.97
2018-12-17T21:53:25.970Z,15.17
2018-12-17T21:56:08.493Z,13.10
2018-12-17T21:58:53.141Z,14.30
2018-12-17T22:01:35.044Z,14.37
2018-12-17T22:04:17.099Z,14.83
2018-12-17T22:07:03.101Z,11.97
2018-12-17T22:09:41.473Z,14.77
2018-12-17T22:12:14.483Z,11.07
2018-12-17T22:14:49.292Z,11.67
2018-12-17T22:17:30.457Z,12.77
2018-12-17T22:20:02.844Z,11.83
2018-12-17T22:22:46.285Z,10.20
2018-12-17T22:25:30.639Z,12.97
2018-12-17T22:28:12.203Z,10.83
2018-12-17T22:30:52.738Z,11.83
2018-12-17T22:33:28.700Z,11.73
2018-12-17T22:36:11.327Z,12.97
2018-12-17T22:38:54.407Z,12.63
2018-12-17T22:41:37.069Z,11.20
2018-12-17T22:44:12.682Z,11.67
2018-12-17T22:46:54.052Z,11.03
2018-12-17T22:49:26.552Z,12.63
2018-12-17T22:52:08.718Z,10.30
2018-12-17T22:54:47.404Z,12.93
2018-12-17T22:57:19.126Z,11.67
2018-12-17T22:59:56.262Z,11.50
2018-12-17T23:02:34.131Z,14.13
2018-12-17T23:05:16.146Z,12.90
2018-12-17T23:08:02.875Z,15.00
2018-12-17T23:10:52.743Z,13.77
2018-12-17T23:13:39.988Z,12.13
2018-12-17T23:16:26.612Z,13.37
2018-12-17T23:18:57.832Z,12.27
2018-12-17T23:21:40.035Z,13.23
2018-12-17T23:24:25.688Z,12.37
2018-12-17T23:27:19.259Z,13.30
2018-12-17T23:29:52.271Z,12.80
2018-12-17T23:32:39.376Z,14.33
2018-12-17T23:35:21.156Z,13.30
2018-12-17T23:38:04.284Z,12.27
2018-12-17T23:40:39.276Z,11.83
2018-12-17T23:43:10.609Z,12.43
2018-12-17T23:45:54.355Z,12.30
2018-12-17T23:48:29.875Z,13.43
2018-12-17T23:51:11.240Z,12.10
2018-12-17T23:53:53.332Z,12.53
2018-12-17T23:56:35.033Z,12.87
2018-12-17T23:59:11.630Z,11.57
